sensor_id;sensor_type;location;lat;lon;timestamp;P1;durP1;ratioP1;P2;durP2;ratioP2
6269;SDS011;3168;51.684;6.954;2023-04-15T00:00:24;3.47;;;3.30;;
6269;SDS011;3168;51.684;6.954;2023-04-15T00:02:50;5.23;;;3.77;;
6269;SDS011;3168;51.684;6.954;2023-04-15T00:05:16;5.90;;;3.87;;
6269;SDS011;3168;51.684;6.954;2023-04-15T00:07:42;3.33;;;3.13;;
6269;SDS011;3168;51.684;6.954;2023-04-15T00:10:07;3.63;;;3.43;;
6269;SDS011;3168;51.684;6.954;2023-04-15T00:12:33;3.07;;;2.87;;
6269;SDS011;3168;51.684;6.954;2023-04-15T00:14:59;3.43;;;3.13;;
6269;SDS011;3168;51.684;6.954;2023-04-15T00:17:25;3.70;;;3.23;;
6269;SDS011;3168;51.684;6.954;2023-04-15T00:19:51;3.53;;;3.33;;
6269;SDS011;3168;51.684;6.954;2023-04-15T00:22:17;4.10;;;3.90;;
6269;SDS011;3168;51.684;6.954;2023-04-15T00:24:42;3.77;;;3.47;;
6269;SDS011;3168;51.684;6.954;2023-04-15T00:27:08;13.90;;;3.53;;
6269;SDS011;3168;51.684;6.954;2023-04-15T00:29:34;3.43;;;3.20;;
6269;SDS011;3168;51.684;6.954;2023-04-15T00:32:00;3.03;;;2.83;;
6269;SDS011;3168;51.684;6.954;2023-04-15T00:34:26;2.97;;;2.67;;
6269;SDS011;3168;51.684;6.954;2023-04-15T00:36:52;3.90;;;3.60;;
6269;SDS011;3168;51.684;6.954;2023-04-15T00:39:17;5.67;;;4.20;;
6269;SDS011;3168;51.684;6.954;2023-04-15T00:41:43;9.60;;;4.43;;
6269;SDS011;3168;51.684;6.954;2023-04-15T00:44:09;4.10;;;3.80;;
6269;SDS011;3168;51.684;6.954;2023-04-15T00:46:35;3.87;;;3.47;;
6269;SDS011;3168;51.684;6.954;2023-04-15T00:49:01;6.30;;;3.60;;
6269;SDS011;3168;51.684;6.954;2023-04-15T00:51:26;3.90;;;3.60;;
6269;SDS011;3168;51.684;6.954;2023-04-15T00:53:52;3.40;;;3.23;;
6269;SDS011;3168;51.684;6.954;2023-04-15T00:56:19;4.17;;;3.70;;
6269;SDS011;3168;51.684;6.954;2023-04-15T00:58:44;4.07;;;3.77;;
6269;SDS011;3168;51.684;6.954;2023-04-15T01:01:10;5.07;;;3.13;;
6269;SDS011;3168;51.684;6.954;2023-04-15T01:03:36;5.03;;;4.53;;
6269;SDS011;3168;51.684;6.954;2023-04-15T01:06:02;6.60;;;3.57;;
6269;SDS011;3168;51.684;6.954;2023-04-15T01:08:28;3.57;;;3.20;;
6269;SDS011;3168;51.684;6.954;2023-04-15T01:10:57;4.73;;;4.33;;
6269;SDS011;3168;51.684;6.954;2023-04-15T01:13:23;3.47;;;3.33;;
6269;SDS011;3168;51.684;6.954;2023-04-15T01:15:49;21.37;;;4.87;;
6269;SDS011;3168;51.684;6.954;2023-04-15T01:18:15;3.63;;;3.30;;
6269;SDS011;3168;51.684;6.954;2023-04-15T01:20:41;6.77;;;4.73;;
6269;SDS011;3168;51.684;6.954;2023-04-15T01:23:08;5.17;;;3.90;;
6269;SDS011;3168;51.684;6.954;2023-04-15T01:25:33;3.83;;;3.53;;
6269;SDS011;3168;51.684;6.954;2023-04-15T01:27:59;2.67;;;2.57;;
6269;SDS011;3168;51.684;6.954;2023-04-15T01:30:25;3.63;;;3.43;;
6269;SDS011;3168;51.684;6.954;2023-04-15T01:32:51;4.07;;;3.77;;
6269;SDS011;3168;51.684;6.954;2023-04-15T01:35:17;3.50;;;3.27;;
6269;SDS011;3168;51.684;6.954;2023-04-15T01:37:42;6.23;;;3.17;;
6269;SDS011;3168;51.684;6.954;2023-04-15T01:40:08;10.70;;;4.03;;
6269;SDS011;3168;51.684;6.954;2023-04-15T01:42:35;4.40;;;4.10;;
6269;SDS011;3168;51.684;6.954;2023-04-15T01:45:00;3.43;;;3.20;;
6269;SDS011;3168;51.684;6.954;2023-04-15T01:47:26;3.20;;;3.10;;
6269;SDS011;3168;51.684;6.954;2023-04-15T01:49:52;3.30;;;3.00;;
6269;SDS011;3168;51.684;6.954;2023-04-15T01:52:17;3.50;;;3.30;;
6269;SDS011;3168;51.684;6.954;2023-04-15T01:54:43;5.57;;;3.57;;
6269;SDS011;3168;51.684;6.954;2023-04-15T01:57:09;4.50;;;4.10;;
6269;SDS011;3168;51.684;6.954;2023-04-15T01:59:36;3.13;;;2.93;;
6269;SDS011;3168;51.684;6.954;2023-04-15T02:02:01;3.85;;;3.65;;
6269;SDS011;3168;51.684;6.954;2023-04-15T02:04:27;2.73;;;2.63;;
6269;SDS011;3168;51.684;6.954;2023-04-15T02:07:00;5.03;;;4.60;;
6269;SDS011;3168;51.684;6.954;2023-04-15T02:09:26;3.97;;;3.67;;
6269;SDS011;3168;51.684;6.954;2023-04-15T02:11:52;2.93;;;2.73;;
6269;SDS011;3168;51.684;6.954;2023-04-15T02:14:19;3.47;;;3.20;;
6269;SDS011;3168;51.684;6.954;2023-04-15T02:16:45;3.20;;;3.00;;
6269;SDS011;3168;51.684;6.954;2023-04-15T02:19:10;3.60;;;3.03;;
6269;SDS011;3168;51.684;6.954;2023-04-15T02:21:36;3.90;;;3.60;;
6269;SDS011;3168;51.684;6.954;2023-04-15T02:24:02;4.40;;;4.10;;
6269;SDS011;3168;51.684;6.954;2023-04-15T02:26:28;4.63;;;4.23;;
6269;SDS011;3168;51.684;6.954;2023-04-15T02:28:54;3.47;;;3.17;;
6269;SDS011;3168;51.684;6.954;2023-04-15T02:31:20;4.00;;;3.80;;
6269;SDS011;3168;51.684;6.954;2023-04-15T02:33:46;4.70;;;3.67;;
6269;SDS011;3168;51.684;6.954;2023-04-15T02:36:11;4.03;;;3.60;;
6269;SDS011;3168;51.684;6.954;2023-04-15T02:38:37;3.20;;;3.10;;
6269;SDS011;3168;51.684;6.954;2023-04-15T02:41:03;7.93;;;3.27;;
6269;SDS011;3168;51.684;6.954;2023-04-15T02:43:29;8.83;;;3.90;;
6269;SDS011;3168;51.684;6.954;2023-04-15T02:45:55;5.77;;;4.40;;
6269;SDS011;3168;51.684;6.954;2023-04-15T02:48:21;4.33;;;3.67;;
6269;SDS011;3168;51.684;6.954;2023-04-15T02:50:46;2.83;;;2.73;;
6269;SDS011;3168;51.684;6.954;2023-04-15T02:53:12;4.13;;;3.00;;
6269;SDS011;3168;51.684;6.954;2023-04-15T02:55:38;3.67;;;3.40;;
6269;SDS011;3168;51.684;6.954;2023-04-15T02:58:04;5.87;;;4.10;;
6269;SDS011;3168;51.684;6.954;2023-04-15T03:00:30;5.80;;;3.03;;
6269;SDS011;3168;51.684;6.954;2023-04-15T03:03:02;9.27;;;3.60;;
6269;SDS011;3168;51.684;6.954;2023-04-15T03:05:23;12.53;;;4.70;;
6269;SDS011;3168;51.684;6.954;2023-04-15T03:07:49;4.07;;;3.77;;
6269;SDS011;3168;51.684;6.954;2023-04-15T03:10:15;3.50;;;3.40;;
6269;SDS011;3168;51.684;6.954;2023-04-15T03:12:41;4.00;;;3.70;;
6269;SDS011;3168;51.684;6.954;2023-04-15T03:15:07;4.43;;;4.03;;
6269;SDS011;3168;51.684;6.954;2023-04-15T03:17:34;3.87;;;3.60;;
6269;SDS011;3168;51.684;6.954;2023-04-15T03:20:01;3.77;;;3.53;;
6269;SDS011;3168;51.684;6.954;2023-04-15T03:22:26;4.20;;;4.00;;
6269;SDS011;3168;51.684;6.954;2023-04-15T03:24:52;3.03;;;2.83;;
6269;SDS011;3168;51.684;6.954;2023-04-15T03:27:18;4.93;;;3.80;;
6269;SDS011;3168;51.684;6.954;2023-04-15T03:29:43;3.27;;;3.13;;
6269;SDS011;3168;51.684;6.954;2023-04-15T03:32:09;5.33;;;3.70;;
6269;SDS011;3168;51.684;6.954;2023-04-15T03:34:35;3.40;;;3.13;;
6269;SDS011;3168;51.684;6.954;2023-04-15T03:37:01;3.90;;;3.70;;
6269;SDS011;3168;51.684;6.954;2023-04-15T03:39:27;6.13;;;4.77;;
6269;SDS011;3168;51.684;6.954;2023-04-15T03:41:53;3.07;;;2.97;;
6269;SDS011;3168;51.684;6.954;2023-04-15T03:44:18;4.83;;;4.40;;
6269;SDS011;3168;51.684;6.954;2023-04-15T03:46:44;3.07;;;2.80;;
6269;SDS011;3168;51.684;6.954;2023-04-15T03:49:10;3.23;;;3.00;;
6269;SDS011;3168;51.684;6.954;2023-04-15T03:51:36;3.83;;;3.50;;
6269;SDS011;3168;51.684;6.954;2023-04-15T03:54:02;3.87;;;3.57;;
6269;SDS011;3168;51.684;6.954;2023-04-15T03:56:28;3.67;;;3.23;;
6269;SDS011;3168;51.684;6.954;2023-04-15T03:58:53;4.67;;;4.30;;
6269;SDS011;3168;51.684;6.954;2023-04-15T04:01:19;4.00;;;3.70;;
6269;SDS011;3168;51.684;6.954;2023-04-15T04:03:45;6.70;;;4.57;;
6269;SDS011;3168;51.684;6.954;2023-04-15T04:06:11;5.07;;;4.40;;
6269;SDS011;3168;51.684;6.954;2023-04-15T04:08:37;7.97;;;3.97;;
6269;SDS011;3168;51.684;6.954;2023-04-15T04:11:03;8.97;;;3.67;;
6269;SDS011;3168;51.684;6.954;2023-04-15T04:13:29;4.13;;;3.83;;
6269;SDS011;3168;51.684;6.954;2023-04-15T04:15:54;3.50;;;3.20;;
6269;SDS011;3168;51.684;6.954;2023-04-15T04:18:20;5.47;;;5.07;;
6269;SDS011;3168;51.684;6.954;2023-04-15T04:20:46;3.97;;;3.57;;
6269;SDS011;3168;51.684;6.954;2023-04-15T04:23:12;5.33;;;4.33;;
6269;SDS011;3168;51.684;6.954;2023-04-15T04:25:38;5.10;;;4.60;;
6269;SDS011;3168;51.684;6.954;2023-04-15T04:28:04;3.53;;;3.40;;
6269;SDS011;3168;51.684;6.954;2023-04-15T04:30:29;17.47;;;3.10;;
6269;SDS011;3168;51.684;6.954;2023-04-15T04:32:55;4.03;;;3.73;;
6269;SDS011;3168;51.684;6.954;2023-04-15T04:35:21;4.50;;;4.20;;
6269;SDS011;3168;51.684;6.954;2023-04-15T04:37:47;5.40;;;4.90;;
6269;SDS011;3168;51.684;6.954;2023-04-15T04:40:13;5.03;;;4.73;;
6269;SDS011;3168;51.684;6.954;2023-04-15T04:42:38;6.03;;;3.70;;
6269;SDS011;3168;51.684;6.954;2023-04-15T04:45:05;7.27;;;3.70;;
6269;SDS011;3168;51.684;6.954;2023-04-15T04:47:31;4.60;;;4.23;;
6269;SDS011;3168;51.684;6.954;2023-04-15T04:49:57;3.80;;;3.60;;
6269;SDS011;3168;51.684;6.954;2023-04-15T04:52:22;4.50;;;4.20;;
6269;SDS011;3168;51.684;6.954;2023-04-15T04:54:48;5.07;;;4.60;;
6269;SDS011;3168;51.684;6.954;2023-04-15T04:57:14;4.60;;;4.20;;
6269;SDS011;3168;51.684;6.954;2023-04-15T04:59:41;5.33;;;5.00;;
6269;SDS011;3168;51.684;6.954;2023-04-15T05:02:06;4.53;;;4.23;;
6269;SDS011;3168;51.684;6.954;2023-04-15T05:04:32;5.53;;;5.13;;
6269;SDS011;3168;51.684;6.954;2023-04-15T05:06:59;6.67;;;5.30;;
6269;SDS011;3168;51.684;6.954;2023-04-15T05:09:25;5.63;;;5.00;;
6269;SDS011;3168;51.684;6.954;2023-04-15T05:11:50;20.50;;;5.00;;
6269;SDS011;3168;51.684;6.954;2023-04-15T05:14:16;5.47;;;5.00;;
6269;SDS011;3168;51.684;6.954;2023-04-15T05:16:42;5.33;;;4.83;;
6269;SDS011;3168;51.684;6.954;2023-04-15T05:19:09;4.33;;;4.03;;
6269;SDS011;3168;51.684;6.954;2023-04-15T05:21:34;5.30;;;4.80;;
6269;SDS011;3168;51.684;6.954;2023-04-15T05:24:00;5.63;;;4.77;;
6269;SDS011;3168;51.684;6.954;2023-04-15T05:26:26;4.20;;;3.90;;
6269;SDS011;3168;51.684;6.954;2023-04-15T05:28:52;5.23;;;4.80;;
6269;SDS011;3168;51.684;6.954;2023-04-15T05:31:18;5.47;;;5.10;;
6269;SDS011;3168;51.684;6.954;2023-04-15T05:33:43;5.83;;;5.33;;
6269;SDS011;3168;51.684;6.954;2023-04-15T05:36:09;8.50;;;4.77;;
6269;SDS011;3168;51.684;6.954;2023-04-15T05:38:35;9.53;;;7.03;;
6269;SDS011;3168;51.684;6.954;2023-04-15T05:41:01;4.20;;;4.00;;
6269;SDS011;3168;51.684;6.954;2023-04-15T05:43:27;5.73;;;5.20;;
6269;SDS011;3168;51.684;6.954;2023-04-15T05:45:53;8.67;;;4.27;;
6269;SDS011;3168;51.684;6.954;2023-04-15T05:48:18;6.57;;;5.90;;
6269;SDS011;3168;51.684;6.954;2023-04-15T05:50:44;5.73;;;5.30;;
6269;SDS011;3168;51.684;6.954;2023-04-15T05:53:10;22.03;;;8.27;;
6269;SDS011;3168;51.684;6.954;2023-04-15T05:55:36;8.80;;;6.73;;
6269;SDS011;3168;51.684;6.954;2023-04-15T05:58:02;5.50;;;5.07;;
6269;SDS011;3168;51.684;6.954;2023-04-15T06:00:28;5.97;;;5.37;;
6269;SDS011;3168;51.684;6.954;2023-04-15T06:02:55;7.50;;;6.00;;
6269;SDS011;3168;51.684;6.954;2023-04-15T06:05:20;11.43;;;6.90;;
6269;SDS011;3168;51.684;6.954;2023-04-15T06:07:46;6.20;;;5.70;;
6269;SDS011;3168;51.684;6.954;2023-04-15T06:10:12;10.00;;;6.30;;
6269;SDS011;3168;51.684;6.954;2023-04-15T06:12:38;10.63;;;7.80;;
6269;SDS011;3168;51.684;6.954;2023-04-15T06:15:04;11.30;;;7.03;;
6269;SDS011;3168;51.684;6.954;2023-04-15T06:17:30;7.73;;;7.00;;
6269;SDS011;3168;51.684;6.954;2023-04-15T06:19:56;9.90;;;7.00;;
6269;SDS011;3168;51.684;6.954;2023-04-15T06:22:22;11.77;;;7.80;;
6269;SDS011;3168;51.684;6.954;2023-04-15T06:24:48;9.43;;;7.10;;
6269;SDS011;3168;51.684;6.954;2023-04-15T06:27:15;13.63;;;6.80;;
6269;SDS011;3168;51.684;6.954;2023-04-15T06:29:40;7.30;;;6.63;;
6269;SDS011;3168;51.684;6.954;2023-04-15T06:32:06;9.37;;;7.77;;
6269;SDS011;3168;51.684;6.954;2023-04-15T06:34:32;5.80;;;5.30;;
6269;SDS011;3168;51.684;6.954;2023-04-15T06:36:58;8.20;;;6.77;;
6269;SDS011;3168;51.684;6.954;2023-04-15T06:39:25;6.33;;;5.83;;
6269;SDS011;3168;51.684;6.954;2023-04-15T06:41:50;7.57;;;5.90;;
6269;SDS011;3168;51.684;6.954;2023-04-15T06:44:16;8.77;;;7.00;;
6269;SDS011;3168;51.684;6.954;2023-04-15T06:46:42;5.47;;;4.83;;
6269;SDS011;3168;51.684;6.954;2023-04-15T06:49:08;7.90;;;6.03;;
6269;SDS011;3168;51.684;6.954;2023-04-15T06:51:34;21.93;;;6.23;;
6269;SDS011;3168;51.684;6.954;2023-04-15T06:53:59;9.83;;;6.90;;
6269;SDS011;3168;51.684;6.954;2023-04-15T06:56:25;10.93;;;7.60;;
6269;SDS011;3168;51.684;6.954;2023-04-15T06:58:51;11.07;;;7.43;;
6269;SDS011;3168;51.684;6.954;2023-04-15T07:01:18;14.97;;;5.57;;
6269;SDS011;3168;51.684;6.954;2023-04-15T07:03:43;6.87;;;6.20;;
6269;SDS011;3168;51.684;6.954;2023-04-15T07:06:10;12.80;;;6.90;;
6269;SDS011;3168;51.684;6.954;2023-04-15T07:08:36;9.20;;;6.63;;
6269;SDS011;3168;51.684;6.954;2023-04-15T07:11:01;9.93;;;6.20;;
6269;SDS011;3168;51.684;6.954;2023-04-15T07:13:29;5.50;;;5.00;;
6269;SDS011;3168;51.684;6.954;2023-04-15T07:15:53;12.10;;;7.53;;
6269;SDS011;3168;51.684;6.954;2023-04-15T07:18:19;5.50;;;4.23;;
6269;SDS011;3168;51.684;6.954;2023-04-15T07:20:45;8.97;;;6.90;;
6269;SDS011;3168;51.684;6.954;2023-04-15T07:23:10;5.77;;;5.17;;
6269;SDS011;3168;51.684;6.954;2023-04-15T07:25:36;6.13;;;5.43;;
6269;SDS011;3168;51.684;6.954;2023-04-15T07:28:02;5.37;;;4.93;;
6269;SDS011;3168;51.684;6.954;2023-04-15T07:30:28;9.00;;;5.43;;
6269;SDS011;3168;51.684;6.954;2023-04-15T07:32:54;6.10;;;5.33;;
6269;SDS011;3168;51.684;6.954;2023-04-15T07:35:20;6.73;;;6.07;;
6269;SDS011;3168;51.684;6.954;2023-04-15T07:37:46;6.67;;;4.97;;
6269;SDS011;3168;51.684;6.954;2023-04-15T07:40:12;5.03;;;4.53;;
6269;SDS011;3168;51.684;6.954;2023-04-15T07:42:38;5.27;;;4.90;;
6269;SDS011;3168;51.684;6.954;2023-04-15T07:45:04;5.53;;;5.03;;
6269;SDS011;3168;51.684;6.954;2023-04-15T07:47:30;4.63;;;4.33;;
6269;SDS011;3168;51.684;6.954;2023-04-15T07:49:56;5.23;;;4.83;;
6269;SDS011;3168;51.684;6.954;2023-04-15T07:52:22;4.10;;;3.80;;
6269;SDS011;3168;51.684;6.954;2023-04-15T07:54:47;5.43;;;4.87;;
6269;SDS011;3168;51.684;6.954;2023-04-15T07:57:13;5.00;;;4.50;;
6269;SDS011;3168;51.684;6.954;2023-04-15T07:59:39;5.07;;;4.60;;
6269;SDS011;3168;51.684;6.954;2023-04-15T08:02:05;5.60;;;5.10;;
6269;SDS011;3168;51.684;6.954;2023-04-15T08:04:31;6.20;;;5.10;;
6269;SDS011;3168;51.684;6.954;2023-04-15T08:06:57;5.33;;;4.40;;
6269;SDS011;3168;51.684;6.954;2023-04-15T08:09:23;5.23;;;4.60;;
6269;SDS011;3168;51.684;6.954;2023-04-15T08:11:49;4.63;;;4.33;;
6269;SDS011;3168;51.684;6.954;2023-04-15T08:14:15;4.70;;;4.27;;
6269;SDS011;3168;51.684;6.954;2023-04-15T08:16:41;3.00;;;2.90;;
6269;SDS011;3168;51.684;6.954;2023-04-15T08:19:07;3.60;;;3.30;;
6269;SDS011;3168;51.684;6.954;2023-04-15T08:21:33;3.83;;;3.63;;
6269;SDS011;3168;51.684;6.954;2023-04-15T08:23:59;3.00;;;2.80;;
6269;SDS011;3168;51.684;6.954;2023-04-15T08:26:25;3.27;;;3.07;;
6269;SDS011;3168;51.684;6.954;2023-04-15T08:28:51;3.10;;;2.90;;
6269;SDS011;3168;51.684;6.954;2023-04-15T08:31:22;13.03;;;2.70;;
6269;SDS011;3168;51.684;6.954;2023-04-15T08:33:48;3.27;;;3.07;;
6269;SDS011;3168;51.684;6.954;2023-04-15T08:36:14;3.77;;;3.33;;
6269;SDS011;3168;51.684;6.954;2023-04-15T08:38:40;3.73;;;3.53;;
6269;SDS011;3168;51.684;6.954;2023-04-15T08:41:06;3.83;;;3.53;;
6269;SDS011;3168;51.684;6.954;2023-04-15T08:43:33;4.43;;;4.00;;
6269;SDS011;3168;51.684;6.954;2023-04-15T08:45:58;4.90;;;4.50;;
6269;SDS011;3168;51.684;6.954;2023-04-15T08:48:24;6.80;;;5.10;;
6269;SDS011;3168;51.684;6.954;2023-04-15T08:50:49;3.87;;;3.70;;
6269;SDS011;3168;51.684;6.954;2023-04-15T08:53:15;3.70;;;3.40;;
6269;SDS011;3168;51.684;6.954;2023-04-15T08:55:43;4.47;;;4.17;;
6269;SDS011;3168;51.684;6.954;2023-04-15T08:58:08;4.33;;;3.93;;
6269;SDS011;3168;51.684;6.954;2023-04-15T09:00:34;4.00;;;3.60;;
6269;SDS011;3168;51.684;6.954;2023-04-15T09:03:00;6.00;;;3.47;;
6269;SDS011;3168;51.684;6.954;2023-04-15T09:05:26;3.90;;;3.60;;
6269;SDS011;3168;51.684;6.954;2023-04-15T09:07:52;5.20;;;4.80;;
6269;SDS011;3168;51.684;6.954;2023-04-15T09:10:18;7.70;;;4.10;;
6269;SDS011;3168;51.684;6.954;2023-04-15T09:12:43;6.40;;;4.10;;
6269;SDS011;3168;51.684;6.954;2023-04-15T09:15:10;5.60;;;4.80;;
6269;SDS011;3168;51.684;6.954;2023-04-15T09:17:41;3.73;;;3.43;;
6269;SDS011;3168;51.684;6.954;2023-04-15T09:20:07;4.13;;;3.77;;
6269;SDS011;3168;51.684;6.954;2023-04-15T09:22:32;4.63;;;4.30;;
6269;SDS011;3168;51.684;6.954;2023-04-15T09:24:58;4.40;;;4.10;;
6269;SDS011;3168;51.684;6.954;2023-04-15T09:27:24;5.30;;;4.40;;
6269;SDS011;3168;51.684;6.954;2023-04-15T09:29:50;5.33;;;3.33;;
6269;SDS011;3168;51.684;6.954;2023-04-15T09:32:16;3.77;;;3.57;;
6269;SDS011;3168;51.684;6.954;2023-04-15T09:34:41;3.03;;;2.83;;
6269;SDS011;3168;51.684;6.954;2023-04-15T09:37:07;3.73;;;3.47;;
6269;SDS011;3168;51.684;6.954;2023-04-15T09:39:45;11.43;;;3.87;;
6269;SDS011;3168;51.684;6.954;2023-04-15T09:42:11;3.83;;;3.33;;
6269;SDS011;3168;51.684;6.954;2023-04-15T09:44:37;3.00;;;2.77;;
6269;SDS011;3168;51.684;6.954;2023-04-15T09:47:02;3.40;;;3.20;;
6269;SDS011;3168;51.684;6.954;2023-04-15T09:49:28;3.93;;;3.83;;
6269;SDS011;3168;51.684;6.954;2023-04-15T09:51:57;3.50;;;3.20;;
6269;SDS011;3168;51.684;6.954;2023-04-15T09:54:22;3.10;;;2.90;;
6269;SDS011;3168;51.684;6.954;2023-04-15T09:56:48;3.70;;;3.50;;
6269;SDS011;3168;51.684;6.954;2023-04-15T09:59:15;4.37;;;4.00;;
6269;SDS011;3168;51.684;6.954;2023-04-15T10:01:42;3.63;;;3.43;;
6269;SDS011;3168;51.684;6.954;2023-04-15T10:04:08;4.07;;;3.77;;
6269;SDS011;3168;51.684;6.954;2023-04-15T10:06:33;2.80;;;2.70;;
6269;SDS011;3168;51.684;6.954;2023-04-15T10:08:59;3.53;;;2.80;;
6269;SDS011;3168;51.684;6.954;2023-04-15T10:11:27;3.13;;;3.03;;
6269;SDS011;3168;51.684;6.954;2023-04-15T10:13:53;3.70;;;3.40;;
6269;SDS011;3168;51.684;6.954;2023-04-15T10:16:19;6.30;;;3.17;;
6269;SDS011;3168;51.684;6.954;2023-04-15T10:18:46;2.47;;;2.33;;
6269;SDS011;3168;51.684;6.954;2023-04-15T10:21:11;2.40;;;2.30;;
6269;SDS011;3168;51.684;6.954;2023-04-15T10:23:37;3.40;;;3.10;;
6269;SDS011;3168;51.684;6.954;2023-04-15T10:26:03;7.30;;;3.47;;
6269;SDS011;3168;51.684;6.954;2023-04-15T10:28:28;4.43;;;4.10;;
6269;SDS011;3168;51.684;6.954;2023-04-15T10:30:54;3.10;;;2.80;;
6269;SDS011;3168;51.684;6.954;2023-04-15T10:33:21;2.77;;;2.67;;
6269;SDS011;3168;51.684;6.954;2023-04-15T10:35:46;3.60;;;3.30;;
6269;SDS011;3168;51.684;6.954;2023-04-15T10:40:49;2.70;;;2.60;;
6269;SDS011;3168;51.684;6.954;2023-04-15T10:45:49;1.83;;;1.73;;
6269;SDS011;3168;51.684;6.954;2023-04-15T10:48:15;2.77;;;2.67;;
6269;SDS011;3168;51.684;6.954;2023-04-15T10:50:42;4.03;;;3.70;;
6269;SDS011;3168;51.684;6.954;2023-04-15T10:53:09;5.43;;;3.47;;
6269;SDS011;3168;51.684;6.954;2023-04-15T10:55:33;2.10;;;2.00;;
6269;SDS011;3168;51.684;6.954;2023-04-15T10:57:59;2.83;;;2.70;;
6269;SDS011;3168;51.684;6.954;2023-04-15T11:00:28;3.23;;;3.03;;
6269;SDS011;3168;51.684;6.954;2023-04-15T11:02:55;2.13;;;2.03;;
6269;SDS011;3168;51.684;6.954;2023-04-15T11:05:20;2.23;;;2.13;;
6269;SDS011;3168;51.684;6.954;2023-04-15T11:07:49;2.77;;;2.57;;
6269;SDS011;3168;51.684;6.954;2023-04-15T11:13:14;3.03;;;2.20;;
6269;SDS011;3168;51.684;6.954;2023-04-15T11:15:42;3.47;;;3.27;;
6269;SDS011;3168;51.684;6.954;2023-04-15T11:18:10;2.63;;;2.43;;
6269;SDS011;3168;51.684;6.954;2023-04-15T11:20:36;3.13;;;3.03;;
6269;SDS011;3168;51.684;6.954;2023-04-15T11:23:01;2.53;;;2.43;;
6269;SDS011;3168;51.684;6.954;2023-04-15T11:25:28;2.60;;;2.43;;
6269;SDS011;3168;51.684;6.954;2023-04-15T11:27:53;3.43;;;3.30;;
6269;SDS011;3168;51.684;6.954;2023-04-15T11:30:20;1.97;;;1.87;;
6269;SDS011;3168;51.684;6.954;2023-04-15T11:32:46;3.03;;;2.77;;
6269;SDS011;3168;51.684;6.954;2023-04-15T11:35:12;2.97;;;2.80;;
6269;SDS011;3168;51.684;6.954;2023-04-15T11:37:37;3.27;;;2.13;;
6269;SDS011;3168;51.684;6.954;2023-04-15T11:40:03;2.67;;;2.50;;
6269;SDS011;3168;51.684;6.954;2023-04-15T11:42:31;4.13;;;3.83;;
6269;SDS011;3168;51.684;6.954;2023-04-15T11:47:34;2.93;;;2.83;;
6269;SDS011;3168;51.684;6.954;2023-04-15T11:52:37;1.60;;;1.50;;
6269;SDS011;3168;51.684;6.954;2023-04-15T11:55:03;2.03;;;1.70;;
6269;SDS011;3168;51.684;6.954;2023-04-15T11:57:30;1.50;;;1.50;;
6269;SDS011;3168;51.684;6.954;2023-04-15T11:59:56;3.77;;;3.10;;
6269;SDS011;3168;51.684;6.954;2023-04-15T12:02:29;3.50;;;3.30;;
6269;SDS011;3168;51.684;6.954;2023-04-15T12:04:48;2.77;;;2.60;;
6269;SDS011;3168;51.684;6.954;2023-04-15T12:07:13;2.00;;;2.00;;
6269;SDS011;3168;51.684;6.954;2023-04-15T12:09:39;1.80;;;1.80;;
6269;SDS011;3168;51.684;6.954;2023-04-15T12:12:05;1.90;;;1.90;;
6269;SDS011;3168;51.684;6.954;2023-04-15T12:14:31;3.30;;;3.10;;
6269;SDS011;3168;51.684;6.954;2023-04-15T12:16:58;3.23;;;2.93;;
6269;SDS011;3168;51.684;6.954;2023-04-15T12:19:23;2.97;;;2.50;;
6269;SDS011;3168;51.684;6.954;2023-04-15T12:21:48;4.03;;;3.67;;
6269;SDS011;3168;51.684;6.954;2023-04-15T12:24:14;7.97;;;6.90;;
6269;SDS011;3168;51.684;6.954;2023-04-15T12:26:44;2.97;;;2.87;;
6269;SDS011;3168;51.684;6.954;2023-04-15T12:29:09;5.90;;;4.83;;
6269;SDS011;3168;51.684;6.954;2023-04-15T12:31:35;2.97;;;2.70;;
6269;SDS011;3168;51.684;6.954;2023-04-15T12:34:01;2.60;;;2.47;;
6269;SDS011;3168;51.684;6.954;2023-04-15T12:36:27;3.13;;;2.93;;
6269;SDS011;3168;51.684;6.954;2023-04-15T12:38:52;3.47;;;2.73;;
6269;SDS011;3168;51.684;6.954;2023-04-15T12:41:19;4.77;;;2.60;;
6269;SDS011;3168;51.684;6.954;2023-04-15T12:43:45;3.20;;;2.90;;
6269;SDS011;3168;51.684;6.954;2023-04-15T12:46:12;5.63;;;3.10;;
6269;SDS011;3168;51.684;6.954;2023-04-15T12:48:39;5.73;;;3.23;;
6269;SDS011;3168;51.684;6.954;2023-04-15T12:51:04;3.20;;;3.00;;
6269;SDS011;3168;51.684;6.954;2023-04-15T12:53:30;2.17;;;2.07;;
6269;SDS011;3168;51.684;6.954;2023-04-15T12:55:56;1.83;;;1.77;;
6269;SDS011;3168;51.684;6.954;2023-04-15T12:58:21;2.37;;;2.03;;
6269;SDS011;3168;51.684;6.954;2023-04-15T13:00:47;1.77;;;1.77;;
6269;SDS011;3168;51.684;6.954;2023-04-15T13:03:14;1.30;;;1.30;;
6269;SDS011;3168;51.684;6.954;2023-04-15T13:05:41;2.40;;;2.30;;
6269;SDS011;3168;51.684;6.954;2023-04-15T13:08:07;2.30;;;1.60;;
6269;SDS011;3168;51.684;6.954;2023-04-15T13:10:34;2.30;;;2.20;;
6269;SDS011;3168;51.684;6.954;2023-04-15T13:12:58;2.97;;;2.43;;
6269;SDS011;3168;51.684;6.954;2023-04-15T13:15:24;3.20;;;2.90;;
6269;SDS011;3168;51.684;6.954;2023-04-15T13:17:50;1.77;;;1.70;;
6269;SDS011;3168;51.684;6.954;2023-04-15T13:20:16;2.03;;;1.93;;
6269;SDS011;3168;51.684;6.954;2023-04-15T13:22:42;1.13;;;1.13;;
6269;SDS011;3168;51.684;6.954;2023-04-15T13:25:08;5.73;;;2.60;;
6269;SDS011;3168;51.684;6.954;2023-04-15T13:27:34;1.90;;;1.73;;
6269;SDS011;3168;51.684;6.954;2023-04-15T13:30:00;1.60;;;1.57;;
6269;SDS011;3168;51.684;6.954;2023-04-15T13:32:25;2.10;;;1.90;;
6269;SDS011;3168;51.684;6.954;2023-04-15T13:34:51;1.87;;;1.77;;
6269;SDS011;3168;51.684;6.954;2023-04-15T13:37:17;2.83;;;2.53;;
6269;SDS011;3168;51.684;6.954;2023-04-15T13:39:43;1.53;;;1.53;;
6269;SDS011;3168;51.684;6.954;2023-04-15T13:42:09;2.07;;;2.00;;
6269;SDS011;3168;51.684;6.954;2023-04-15T13:44:34;1.43;;;1.33;;
6269;SDS011;3168;51.684;6.954;2023-04-15T13:47:00;1.77;;;1.70;;
6269;SDS011;3168;51.684;6.954;2023-04-15T13:49:26;3.27;;;2.33;;
6269;SDS011;3168;51.684;6.954;2023-04-15T13:51:52;1.90;;;1.80;;
6269;SDS011;3168;51.684;6.954;2023-04-15T13:54:17;9.23;;;2.10;;
6269;SDS011;3168;51.684;6.954;2023-04-15T13:56:43;1.70;;;1.63;;
6269;SDS011;3168;51.684;6.954;2023-04-15T13:59:09;1.83;;;1.83;;
6269;SDS011;3168;51.684;6.954;2023-04-15T14:01:35;1.20;;;1.20;;
6269;SDS011;3168;51.684;6.954;2023-04-15T14:04:01;1.43;;;1.33;;
6269;SDS011;3168;51.684;6.954;2023-04-15T14:06:27;2.08;;;1.98;;
6269;SDS011;3168;51.684;6.954;2023-04-15T14:08:53;8.60;;;1.87;;
6269;SDS011;3168;51.684;6.954;2023-04-15T14:11:18;1.37;;;1.37;;
6269;SDS011;3168;51.684;6.954;2023-04-15T14:13:44;1.37;;;1.37;;
6269;SDS011;3168;51.684;6.954;2023-04-15T14:16:10;3.73;;;1.20;;
6269;SDS011;3168;51.684;6.954;2023-04-15T14:18:36;1.50;;;1.43;;
6269;SDS011;3168;51.684;6.954;2023-04-15T14:21:02;2.57;;;2.20;;
6269;SDS011;3168;51.684;6.954;2023-04-15T14:23:29;1.87;;;1.77;;
6269;SDS011;3168;51.684;6.954;2023-04-15T14:25:54;5.60;;;3.20;;
6269;SDS011;3168;51.684;6.954;2023-04-15T14:28:20;2.23;;;2.13;;
6269;SDS011;3168;51.684;6.954;2023-04-15T14:30:46;2.33;;;2.23;;
6269;SDS011;3168;51.684;6.954;2023-04-15T14:33:12;2.27;;;2.07;;
6269;SDS011;3168;51.684;6.954;2023-04-15T14:35:38;1.93;;;1.93;;
6269;SDS011;3168;51.684;6.954;2023-04-15T14:38:03;2.17;;;2.07;;
6269;SDS011;3168;51.684;6.954;2023-04-15T14:40:29;2.83;;;2.73;;
6269;SDS011;3168;51.684;6.954;2023-04-15T14:42:56;2.70;;;2.47;;
6269;SDS011;3168;51.684;6.954;2023-04-15T14:45:22;2.97;;;2.07;;
6269;SDS011;3168;51.684;6.954;2023-04-15T14:47:48;2.73;;;2.53;;
6269;SDS011;3168;51.684;6.954;2023-04-15T14:50:13;2.37;;;2.27;;
6269;SDS011;3168;51.684;6.954;2023-04-15T14:52:39;2.03;;;1.67;;
6269;SDS011;3168;51.684;6.954;2023-04-15T14:55:07;1.97;;;1.87;;
6269;SDS011;3168;51.684;6.954;2023-04-15T14:57:32;3.97;;;2.70;;
6269;SDS011;3168;51.684;6.954;2023-04-15T14:59:58;2.97;;;2.87;;
6269;SDS011;3168;51.684;6.954;2023-04-15T15:02:24;2.20;;;2.10;;
6269;SDS011;3168;51.684;6.954;2023-04-15T15:04:50;2.37;;;2.27;;
6269;SDS011;3168;51.684;6.954;2023-04-15T15:07:15;2.67;;;2.10;;
6269;SDS011;3168;51.684;6.954;2023-04-15T15:09:41;1.37;;;1.37;;
6269;SDS011;3168;51.684;6.954;2023-04-15T15:12:07;3.03;;;1.23;;
6269;SDS011;3168;51.684;6.954;2023-04-15T15:14:33;5.23;;;2.17;;
6269;SDS011;3168;51.684;6.954;2023-04-15T15:16:59;2.23;;;2.07;;
6269;SDS011;3168;51.684;6.954;2023-04-15T15:19:25;4.20;;;1.87;;